.
WxDataArchive / Data Records for 2014-02-08
2014-02-07 February 2014 2014-02-09

Data Records for Saturday, 08 February 2014

Time	Temp	Chill	HIndex	Humid	Dewpt	 Wind 	HiWind	WindDir	Rain 	Barom 
-----	----	-----	------	-----	-----	------	------	-------	-----	----- 
00:00	6.0	6.0	6.0	67	-2.6	0	1	248	0.00	30.415 
00:05	6.0	6.0	6.0	67	-2.6	0	2	248	0.00	30.415 
00:10	6.0	6.0	6.0	66	-2.9	0	2	248	0.00	30.415 
00:15	5.8	5.8	5.8	66	-3.1	0	1	248	0.00	30.410 
00:20	5.6	5.6	5.6	66	-3.3	0	1	248	0.00	30.410 
00:25	5.6	5.6	5.6	66	-3.3	0	1	248	0.00	30.410 
00:30	5.6	5.6	5.6	66	-3.3	0	1	248	0.00	30.405 
00:35	5.4	5.4	5.4	67	-3.1	0	1	248	0.00	30.405 
00:40	5.6	5.6	5.6	67	-2.9	0	1	248	0.00	30.405 
00:45	5.6	5.6	5.6	67	-2.9	0	1	248	0.00	30.402 
00:50	5.8	5.8	5.8	67	-2.8	0	0	---	0.00	30.402 
00:55	5.8	5.8	5.8	67	-2.8	0	0	---	0.00	30.402 
01:00	5.8	5.8	5.8	67	-2.8	0	1	248	0.00	30.396 
01:05	5.8	5.8	5.8	66	-3.1	0	0	---	0.00	30.396 
01:10	5.8	5.8	5.8	66	-3.1	0	1	248	0.00	30.396 
01:15	6.0	6.0	6.0	66	-2.9	0	0	---	0.00	30.394 
01:20	6.0	6.0	6.0	66	-2.9	0	0	---	0.00	30.394 
01:25	6.0	6.0	6.0	66	-2.9	0	1	248	0.00	30.394 
01:30	6.0	6.0	6.0	66	-2.9	0	1	248	0.00	30.392 
01:35	6.0	6.0	6.0	65	-3.2	0	1	248	0.00	30.392 
01:40	5.8	5.8	5.8	65	-3.4	0	2	248	0.00	30.392 
01:45	5.8	5.8	5.8	65	-3.4	0	1	248	0.00	30.395 
01:50	5.8	5.8	5.8	65	-3.4	0	1	248	0.00	30.395 
01:55	5.8	5.8	5.8	65	-3.4	0	1	248	0.00	30.395 
02:00	5.6	5.6	5.6	65	-3.6	0	1	248	0.00	30.398 
02:05	5.4	5.4	5.4	66	-3.5	0	1	248	0.00	30.398 
02:10	5.4	5.4	5.4	66	-3.5	0	1	248	0.00	30.398 
02:15	5.2	5.2	5.2	66	-3.6	0	1	248	0.00	30.395 
02:20	5.2	5.2	5.2	66	-3.6	0	0	---	0.00	30.395 
02:25	5.0	5.0	5.0	66	-3.8	0	0	---	0.00	30.395 
02:30	4.8	4.8	4.8	66	-4.0	0	0	---	0.00	30.396 
02:35	4.7	4.7	4.7	66	-4.1	0	1	248	0.00	30.396 
02:40	4.5	4.5	4.5	66	-4.3	0	0	---	0.00	30.396 
02:45	4.3	4.3	4.3	67	-4.2	0	0	---	0.00	30.399 
02:50	4.1	4.1	4.1	67	-4.4	0	1	248	0.00	30.399 
02:55	4.1	4.1	4.1	68	-4.1	0	2	248	0.00	30.399 
03:00	3.9	3.9	3.9	68	-4.3	0	0	---	0.00	30.393 
03:05	3.9	3.9	3.9	68	-4.3	0	0	---	0.00	30.393 
03:10	3.7	3.7	3.7	68	-4.5	0	0	---	0.00	30.393 
03:15	3.7	3.7	3.7	68	-4.5	0	1	248	0.00	30.391 
03:20	3.7	3.7	3.7	69	-4.2	0	1	248	0.00	30.391 
03:25	3.7	3.7	3.7	69	-4.2	0	1	248	0.00	30.391 
03:30	3.7	3.7	3.7	69	-4.2	0	0	---	0.00	30.390 
03:35	3.7	3.7	3.7	69	-4.2	0	1	248	0.00	30.390 
03:40	3.7	3.7	3.7	69	-4.2	0	1	248	0.00	30.390 
03:45	3.7	3.7	3.7	69	-4.2	0	1	248	0.00	30.392 
03:50	3.7	3.7	3.7	69	-4.2	0	1	248	0.00	30.392 
03:55	3.7	3.7	3.7	69	-4.2	0	1	248	0.00	30.392 
04:00	3.7	3.7	3.7	69	-4.2	0	1	248	0.00	30.389 
04:05	3.5	3.5	3.5	69	-4.4	0	2	248	0.00	30.389 
04:10	3.5	3.5	3.5	70	-4.1	0	2	248	0.00	30.389 
04:15	3.7	3.7	3.7	70	-3.9	0	1	248	0.00	30.385 
04:20	3.7	3.7	3.7	69	-4.2	0	1	248	0.00	30.385 
04:25	3.7	3.7	3.7	70	-3.9	0	1	248	0.00	30.385 
04:30	3.7	3.7	3.7	70	-3.9	0	0	---	0.00	30.373 
04:35	3.7	3.7	3.7	70	-3.9	0	1	248	0.00	30.373 
04:40	3.7	3.7	3.7	70	-3.9	0	1	248	0.00	30.373 
04:45	3.7	3.7	3.7	69	-4.2	0	0	---	0.00	30.371 
04:50	3.9	3.9	3.9	69	-4.0	0	1	248	0.00	30.371 
04:55	3.9	3.9	3.9	69	-4.0	0	0	---	0.00	30.371 
05:00	3.9	3.9	3.9	70	-3.7	0	0	---	0.00	30.372 
05:05	4.1	4.1	4.1	70	-3.5	0	1	248	0.00	30.372 
05:10	4.3	4.3	4.3	70	-3.3	0	0	---	0.00	30.372 
05:15	4.5	4.5	4.5	70	-3.1	0	0	---	0.00	30.374 
05:20	4.7	4.7	4.7	70	-2.9	0	0	---	0.00	30.374 
05:25	4.8	4.8	4.8	70	-2.8	0	0	---	0.00	30.374 
05:30	5.0	5.0	5.0	70	-2.6	0	0	---	0.00	30.375 
05:35	5.0	5.0	5.0	69	-2.9	0	1	248	0.00	30.375 
05:40	5.2	5.2	5.2	69	-2.7	0	0	---	0.00	30.375 
05:45	5.2	5.2	5.2	69	-2.7	0	0	---	0.00	30.375 
05:50	5.4	5.4	5.4	68	-2.8	0	0	---	0.00	30.375 
05:55	5.4	5.4	5.4	68	-2.8	0	0	---	0.00	30.375 
06:00	5.4	5.4	5.4	67	-3.1	0	1	248	0.00	30.377 
06:05	5.4	5.4	5.4	67	-3.1	0	0	---	0.00	30.377 
06:10	5.4	5.4	5.4	67	-3.1	0	0	---	0.00	30.377 
06:15	5.4	5.4	5.4	67	-3.1	0	0	---	0.00	30.373 
06:20	5.4	5.4	5.4	67	-3.1	0	0	---	0.00	30.373 
06:25	5.4	5.4	5.4	67	-3.1	0	0	---	0.00	30.373 
06:30	5.6	5.6	5.6	67	-2.9	0	0	---	0.00	30.377 
06:35	5.6	5.6	5.6	67	-2.9	0	0	---	0.00	30.377 
06:40	5.8	5.8	5.8	67	-2.8	0	0	---	0.00	30.377 
06:45	5.8	5.8	5.8	67	-2.8	0	0	---	0.00	30.376 
06:50	5.8	5.8	5.8	67	-2.8	0	0	---	0.00	30.376 
06:55	6.0	6.0	6.0	67	-2.6	0	0	---	0.00	30.376 
07:00	6.0	6.0	6.0	67	-2.6	0	0	---	0.00	30.375 
07:05	6.0	6.0	6.0	68	-2.3	0	0	---	0.00	30.375 
07:10	6.0	6.0	6.0	69	-1.9	0	0	---	0.00	30.375 
07:15	6.0	6.0	6.0	69	-1.9	0	0	---	0.00	30.373 
07:20	6.0	6.0	6.0	70	-1.6	0	0	---	0.00	30.373 
07:25	6.0	6.0	6.0	70	-1.6	0	0	---	0.00	30.373 
07:30	6.0	6.0	6.0	72	-1.1	0	1	248	0.00	30.371 
07:35	6.0	6.0	6.0	72	-1.1	0	0	---	0.00	30.371 
07:40	5.8	5.8	5.8	73	-1.0	0	0	---	0.00	30.371 
07:45	5.6	5.6	5.6	74	-0.9	0	0	---	0.00	30.372 
07:50	5.4	5.4	5.4	74	-1.1	0	1	248	0.00	30.372 
07:55	5.2	5.2	5.2	74	-1.2	0	0	---	0.00	30.372 
08:00	5.0	5.0	5.0	75	-1.2	0	0	---	0.00	30.378 
08:05	5.0	5.0	5.0	75	-1.2	0	1	248	0.00	30.378 
08:10	4.8	4.8	4.8	75	-1.4	0	1	248	0.00	30.378 
08:15	4.8	4.8	4.8	76	-1.1	0	1	248	0.00	30.379 
08:20	4.8	4.8	4.8	76	-1.1	0	1	248	0.00	30.379 
08:25	4.8	4.8	4.8	76	-1.1	0	0	---	0.00	30.379 
08:30	5.0	5.0	5.0	76	-0.9	0	1	248	0.00	30.381 
08:35	5.0	5.0	5.0	76	-0.9	0	0	---	0.00	30.381 
08:40	5.2	5.2	5.2	76	-0.7	0	1	248	0.00	30.381 
08:45	5.4	5.4	5.4	76	-0.5	0	1	248	0.00	30.380 
08:50	5.8	5.8	5.8	76	-0.1	0	1	248	0.00	30.380 
08:55	6.0	6.0	6.0	76	0.1	0	1	248	0.00	30.380 
09:00	6.0	6.0	6.0	76	0.1	0	1	248	0.00	30.377 
09:05	6.0	6.0	6.0	76	0.1	0	1	248	0.00	30.377 
09:10	6.0	6.0	6.0	76	0.1	0	1	248	0.00	30.377 
09:15	6.0	6.0	6.0	75	-0.2	0	1	248	0.00	30.374 
09:20	6.0	6.0	6.0	76	0.1	0	1	248	0.00	30.374 
09:25	6.1	6.1	6.1	76	0.2	0	1	248	0.00	30.374 
09:30	6.1	6.1	6.1	75	-0.1	0	2	248	0.00	30.378 
09:35	6.3	6.3	6.3	76	0.4	0	2	248	0.00	30.378 
09:40	6.7	6.7	6.7	76	0.8	0	1	248	0.00	30.378 
09:45	7.0	7.0	7.0	75	0.8	0	2	248	0.00	30.376 
09:50	7.6	7.6	7.6	75	1.4	0	1	248	0.00	30.376 
09:55	8.3	8.3	8.3	75	2.0	0	1	248	0.00	30.376 
10:00	9.2	9.2	9.2	73	2.3	0	2	248	0.00	30.375 
10:05	9.9	9.9	9.9	72	2.7	0	2	248	0.00	30.375 
10:10	10.2	10.2	10.2	71	2.7	0	2	202	0.00	30.375 
10:15	9.9	9.9	9.9	70	2.1	1	4	135	0.00	30.371 
10:20	10.0	10.0	10.0	71	2.5	0	3	112	0.00	30.371 
10:25	10.0	10.0	10.0	71	2.5	0	2	112	0.00	30.371 
10:30	10.2	10.2	10.2	71	2.7	0	1	112	0.00	30.371 
10:35	10.5	10.5	10.5	71	3.0	0	2	112	0.00	30.371 
10:40	10.7	10.7	10.7	71	3.2	1	3	112	0.00	30.371 
10:45	10.5	10.5	10.5	71	3.0	1	3	112	0.00	30.361 
10:50	10.5	10.5	10.5	71	3.0	0	3	112	0.00	30.361 
10:55	10.7	10.7	10.7	71	3.2	1	3	112	0.00	30.361 
11:00	10.7	10.7	10.7	71	3.2	1	4	90	0.00	30.362 
11:05	10.9	10.9	10.9	71	3.4	1	3	90	0.00	30.362 
11:10	10.7	10.7	10.7	70	2.9	1	4	90	0.00	30.362 
11:15	11.2	11.2	11.2	71	3.7	0	2	90	0.00	30.359 
11:20	11.7	11.7	11.7	70	3.8	0	2	90	0.00	30.359 
11:25	12.1	12.1	12.1	69	3.9	1	3	90	0.00	30.359 
11:30	11.9	11.9	11.9	69	3.7	1	3	90	0.00	30.354 
11:35	12.3	12.3	12.3	69	4.1	1	3	90	0.00	30.354 
11:40	12.4	12.4	12.4	70	4.5	1	3	90	0.00	30.354 
11:45	12.1	12.1	12.1	69	3.9	2	4	90	0.00	30.352 
11:50	12.3	12.3	12.3	70	4.4	1	2	90	0.00	30.352 
11:55	12.4	12.4	12.4	70	4.5	1	3	90	0.00	30.352 
12:00	12.9	12.9	12.9	71	5.3	0	3	90	0.00	30.347 
12:05	13.5	13.5	13.5	70	5.6	0	2	90	0.00	30.347 
12:10	13.8	13.8	13.8	70	5.9	0	2	90	0.00	30.347 
12:15	13.8	13.8	13.8	69	5.5	1	3	90	0.00	30.333 
12:20	13.5	13.5	13.5	70	5.6	2	4	90	0.00	30.333 
12:25	13.8	13.8	13.8	70	5.9	0	2	90	0.00	30.333 
12:30	14.1	14.1	14.1	69	5.8	1	3	90	0.00	30.322 
12:35	14.3	14.3	14.3	70	6.3	0	2	90	0.00	30.322 
12:40	14.3	14.3	14.3	69	6.0	1	4	90	0.00	30.322 
12:45	14.3	14.3	14.3	69	6.0	1	4	90	0.00	30.321 
12:50	14.3	14.3	14.3	70	6.3	0	3	90	0.00	30.321 
12:55	14.3	14.3	14.3	70	6.3	1	3	90	0.00	30.321 
13:00	14.1	14.1	14.1	69	5.8	2	4	90	0.00	30.317 
13:05	14.0	14.0	14.0	70	6.0	1	3	90	0.00	30.317 
13:10	14.1	14.1	14.1	71	6.5	0	2	90	0.00	30.317 
13:15	14.6	14.6	14.6	71	6.9	0	3	90	0.00	30.313 
13:20	14.4	14.4	14.4	71	6.7	1	4	90	0.00	30.313 
13:25	14.4	14.4	14.4	72	7.1	1	4	90	0.00	30.313 
13:30	14.8	14.8	14.8	72	7.4	1	4	112	0.00	30.294 
13:35	15.1	15.1	15.1	71	7.4	1	3	112	0.00	30.294 
13:40	15.1	15.1	15.1	72	7.7	1	3	112	0.00	30.294 
13:45	14.6	14.6	14.6	73	7.5	2	5	112	0.00	30.287 
13:50	14.8	14.8	14.8	73	7.7	0	2	112	0.00	30.287 
13:55	14.8	14.8	14.8	73	7.7	1	3	112	0.00	30.287 
14:00	14.8	14.8	14.8	73	7.7	1	3	112	0.00	30.287 
14:05	14.6	14.6	14.6	74	7.8	1	4	112	0.00	30.287 
14:10	14.8	14.8	14.8	73	7.7	1	3	112	0.00	30.287 
14:15	14.6	14.6	14.6	74	7.8	1	4	112	0.00	30.277 
14:20	14.8	14.8	14.8	74	8.0	1	3	112	0.00	30.277 
14:25	14.8	14.8	14.8	74	8.0	1	3	112	0.00	30.277 
14:30	14.8	14.8	14.8	75	8.3	1	3	112	0.00	30.259 
14:35	15.1	15.1	15.1	75	8.6	1	3	112	0.00	30.259 
14:40	14.9	14.9	14.9	74	8.1	2	5	112	0.00	30.259 
14:45	14.4	14.4	14.4	75	8.0	2	3	112	0.00	30.253 
14:50	14.4	14.4	14.4	75	8.0	2	5	112	0.00	30.253 
14:55	14.3	14.3	14.3	75	7.9	1	4	90	0.00	30.253 
15:00	14.1	14.1	14.1	75	7.7	1	3	90	0.00	30.256 
15:05	14.1	14.1	14.1	76	8.0	2	4	90	0.00	30.256 
15:10	14.1	14.1	14.1	76	8.0	1	4	90	0.00	30.256 
15:15	14.0	14.0	14.0	76	7.9	1	4	90	0.00	30.252 
15:20	14.0	14.0	14.0	76	7.9	1	3	90	0.00	30.252 
15:25	13.8	13.8	13.8	76	7.7	2	5	90	0.00	30.252 
15:30	13.8	13.8	13.8	76	7.7	2	4	90	0.00	30.241 
15:35	13.8	13.8	13.8	77	7.9	1	3	90	0.00	30.241 
15:40	13.8	13.8	13.8	76	7.7	2	6	112	0.00	30.241 
15:45	13.6	13.6	13.6	76	7.5	2	6	90	0.00	30.241 
15:50	13.5	13.5	13.5	77	7.7	2	5	112	0.00	30.241 
15:55	13.3	13.3	13.3	77	7.5	2	5	90	0.00	30.241 
16:00	13.5	13.5	13.5	77	7.7	0	2	90	0.00	30.240 
16:05	13.5	13.5	13.5	77	7.7	2	4	90	0.00	30.240 
16:10	13.5	13.5	13.5	77	7.7	2	3	90	0.00	30.240 
16:15	13.3	13.3	13.3	77	7.5	2	4	90	0.00	30.242 
16:20	13.1	13.1	13.1	77	7.3	2	5	90	0.00	30.242 
16:25	13.3	13.3	13.3	78	7.7	0	2	90	0.00	30.242 
16:30	13.5	13.5	13.5	78	7.9	0	1	90	0.00	30.244 
16:35	13.5	13.5	13.5	78	7.9	0	2	90	0.00	30.244 
16:40	13.5	13.5	13.5	77	7.7	0	2	90	0.00	30.244 
16:45	13.5	13.5	13.5	77	7.7	1	3	90	0.00	30.241 
16:50	13.5	13.5	13.5	77	7.7	0	2	90	0.00	30.241 
16:55	13.5	13.5	13.5	77	7.7	0	2	90	0.00	30.241 
17:00	13.5	13.5	13.5	77	7.7	0	3	90	0.00	30.237 
17:05	13.5	13.5	13.5	77	7.7	0	1	90	0.00	30.237 
17:10	13.5	13.5	13.5	77	7.7	0	2	90	0.00	30.237 
17:15	13.5	13.5	13.5	78	7.9	0	1	90	0.00	30.243 
17:20	13.5	13.5	13.5	78	7.9	0	2	90	0.00	30.243 
17:25	13.3	13.3	13.3	79	8.0	0	2	90	0.00	30.243 
17:30	13.1	13.1	13.1	80	8.1	1	4	90	0.00	30.241 
17:35	13.1	13.1	13.1	81	8.4	0	4	90	0.00	30.241 
17:40	13.1	13.1	13.1	81	8.4	0	2	90	0.00	30.241 
17:45	13.1	13.1	13.1	81	8.4	0	1	90	0.00	30.245 
17:50	13.1	13.1	13.1	81	8.4	0	2	90	0.00	30.245 
17:55	12.9	12.9	12.9	82	8.5	1	3	90	0.00	30.245 
18:00	12.9	12.9	12.9	82	8.5	0	2	90	0.00	30.239 
18:05	12.9	12.9	12.9	82	8.5	1	4	90	0.00	30.239 
18:10	12.8	12.8	12.8	83	8.6	0	2	90	0.00	30.239 
18:15	12.8	12.8	12.8	83	8.6	0	2	90	0.00	30.243 
18:20	12.6	12.6	12.6	83	8.4	0	3	90	0.00	30.243 
18:25	12.6	12.6	12.6	83	8.4	0	2	90	0.00	30.243 
18:30	12.6	12.6	12.6	83	8.4	0	2	90	0.00	30.248 
18:35	12.6	12.6	12.6	83	8.4	0	2	90	0.00	30.248 
18:40	12.6	12.6	12.6	83	8.4	0	1	90	0.00	30.248 
18:45	12.6	12.6	12.6	83	8.4	0	2	90	0.00	30.250 
18:50	12.6	12.6	12.6	83	8.4	0	2	90	0.00	30.250 
18:55	12.6	12.6	12.6	84	8.7	0	1	90	0.00	30.250 
19:00	12.6	12.6	12.6	84	8.7	0	1	90	0.00	30.242 
19:05	12.6	12.6	12.6	84	8.7	0	1	90	0.00	30.242 
19:10	12.6	12.6	12.6	84	8.7	1	2	90	0.00	30.242 
19:15	12.6	12.6	12.6	84	8.7	0	2	90	0.00	30.241 
19:20	12.6	12.6	12.6	84	8.7	0	2	90	0.00	30.241 
19:25	12.6	12.6	12.6	84	8.7	0	2	90	0.00	30.241 
19:30	12.6	12.6	12.6	84	8.7	0	2	90	0.00	30.237 
19:35	12.6	12.6	12.6	84	8.7	1	2	90	0.00	30.237 
19:40	12.6	12.6	12.6	84	8.7	0	3	90	0.00	30.237 
19:45	12.6	12.6	12.6	84	8.7	0	2	90	0.00	30.227 
19:50	12.6	12.6	12.6	84	8.7	0	2	90	0.00	30.227 
19:55	12.6	12.6	12.6	84	8.7	0	2	90	0.00	30.227 
20:00	12.6	12.6	12.6	84	8.7	1	4	90	0.00	30.225 
20:05	12.6	12.6	12.6	84	8.7	0	2	90	0.00	30.225 
20:10	12.6	12.6	12.6	84	8.7	0	3	90	0.00	30.225 
20:15	12.6	12.6	12.6	84	8.7	0	1	90	0.00	30.227 
20:20	12.6	12.6	12.6	84	8.7	0	1	90	0.00	30.227 
20:25	12.6	12.6	12.6	84	8.7	0	1	90	0.00	30.227 
20:30	12.6	12.6	12.6	83	8.4	0	2	90	0.00	30.223 
20:35	12.6	12.6	12.6	83	8.4	0	2	90	0.00	30.223 
20:40	12.6	12.6	12.6	84	8.7	1	3	90	0.00	30.223 
20:45	12.6	12.6	12.6	84	8.7	1	2	90	0.00	30.222 
20:50	12.8	12.8	12.8	84	8.9	0	2	90	0.00	30.222 
20:55	12.6	12.6	12.6	84	8.7	1	3	90	0.00	30.222 
21:00	12.6	12.6	12.6	84	8.7	1	3	90	0.00	30.220 
21:05	12.6	12.6	12.6	84	8.7	0	2	90	0.00	30.220 
21:10	12.8	12.8	12.8	84	8.9	0	2	90	0.00	30.220 
21:15	12.8	12.8	12.8	84	8.9	1	2	90	0.00	30.209 
21:20	12.8	12.8	12.8	84	8.9	0	2	90	0.00	30.209 
21:25	12.8	12.8	12.8	84	8.9	1	3	90	0.00	30.209 
21:30	12.8	12.8	12.8	84	8.9	0	2	90	0.00	30.207 
21:35	12.8	12.8	12.8	84	8.9	0	2	90	0.00	30.207 
21:40	12.8	12.8	12.8	84	8.9	0	2	90	0.00	30.207 
21:45	12.8	12.8	12.8	84	8.9	1	2	90	0.00	30.212 
21:50	12.8	12.8	12.8	84	8.9	0	2	90	0.00	30.212 
21:55	12.8	12.8	12.8	84	8.9	0	1	90	0.00	30.212 
22:00	12.8	12.8	12.8	84	8.9	0	1	90	0.00	30.209 
22:05	12.8	12.8	12.8	84	8.9	0	1	90	0.00	30.209 
22:10	12.8	12.8	12.8	84	8.9	0	2	90	0.00	30.209 
22:15	12.8	12.8	12.8	84	8.9	0	1	90	0.00	30.205 
22:20	12.8	12.8	12.8	84	8.9	1	2	90	0.00	30.205 
22:25	12.8	12.8	12.8	84	8.9	0	1	90	0.00	30.205 
22:30	12.8	12.8	12.8	84	8.9	0	2	90	0.00	30.203 
22:35	12.8	12.8	12.8	84	8.9	0	2	90	0.00	30.203 
22:40	12.8	12.8	12.8	84	8.9	0	2	90	0.00	30.203 
22:45	12.8	12.8	12.8	84	8.9	0	2	90	0.00	30.201 
22:50	12.8	12.8	12.8	84	8.9	0	2	90	0.00	30.201 
22:55	12.8	12.8	12.8	84	8.9	0	2	90	0.00	30.201 
23:00	12.8	12.8	12.8	84	8.9	0	2	90	0.00	30.193 
23:05	12.8	12.8	12.8	84	8.9	0	2	90	0.00	30.193 
23:10	12.8	12.8	12.8	84	8.9	0	2	90	0.00	30.193 
23:15	12.8	12.8	12.8	84	8.9	0	2	90	0.00	30.184 
23:20	12.8	12.8	12.8	84	8.9	0	1	90	0.00	30.184 
23:25	12.8	12.8	12.8	84	8.9	0	0	---	0.00	30.184 
23:30	12.8	12.8	12.8	84	8.9	0	1	90	0.00	30.186 
23:35	12.8	12.8	12.8	84	8.9	0	0	---	0.00	30.186 
23:40	12.9	12.9	12.9	84	9.0	0	1	90	0.00	30.186 
23:45	12.9	12.9	12.9	84	9.0	0	1	90	0.00	30.188 
23:50	12.9	12.9	12.9	84	9.0	0	1	90	0.00	30.188 
23:55	12.9	12.9	12.9	84	9.0	0	1	90	0.00	30.188 

CoCoRaHS
IN-AL-39
A2 Web Hosting
Creative Commons License
GoDaddy
search engine by freefind advanced

loaded 2018-11-20 14:25:17 • last modified 2010-11-18 10:43:29
Privacy PolicyDisclaimer
• wx.awcolley.com is powered by PmWiki v.2002016 •
• all content (unless otherwise noted) © 2018 A W Colley